createdAt,value
2022-12-07T00:01:21.779Z,11.45
2022-12-07T00:03:50.245Z,11.40
2022-12-07T00:06:18.245Z,11.03
2022-12-07T00:08:45.664Z,11.05
2022-12-07T00:11:13.609Z,11.15
2022-12-07T00:13:40.632Z,10.88
2022-12-07T00:16:10.805Z,11.45
2022-12-07T00:18:37.545Z,10.30
2022-12-07T00:21:10.872Z,11.07
2022-12-07T00:23:37.853Z,10.35
2022-12-07T00:26:09.010Z,10.63
2022-12-07T00:28:35.869Z,10.32
2022-12-07T00:31:10.017Z,11.30
2022-12-07T00:33:37.784Z,10.82
2022-12-07T00:36:08.097Z,10.65
2022-12-07T00:38:36.250Z,11.80
2022-12-07T00:41:09.976Z,10.75
2022-12-07T00:43:36.600Z,10.80
2022-12-07T00:46:03.241Z,10.38
2022-12-07T00:48:30.099Z,9.90
2022-12-07T00:50:56.585Z,9.98
2022-12-07T00:53:23.122Z,9.88
2022-12-07T00:55:49.728Z,11.20
2022-12-07T00:58:16.254Z,9.25
2022-12-07T01:00:44.239Z,8.95
2022-12-07T01:03:13.243Z,10.77
2022-12-07T01:05:40.580Z,9.20
2022-12-07T01:08:07.539Z,10.40
2022-12-07T01:10:34.295Z,11.10
2022-12-07T01:13:00.832Z,10.43
2022-12-07T01:15:27.433Z,9.75
2022-12-07T01:17:55.660Z,9.65
2022-12-07T01:20:22.837Z,9.90
2022-12-07T01:22:49.388Z,9.88
2022-12-07T01:25:16.057Z,9.75
2022-12-07T01:27:42.564Z,10.07
2022-12-07T01:30:11.382Z,10.13
2022-12-07T01:32:37.837Z,9.87
2022-12-07T01:35:04.611Z,9.68
2022-12-07T01:37:36.692Z,10.98
2022-12-07T01:40:04.944Z,10.48
2022-12-07T01:42:31.402Z,10.85
2022-12-07T01:45:19.474Z,10.27
2022-12-07T01:47:56.502Z,10.23
2022-12-07T01:50:26.781Z,10.63
2022-12-07T01:52:56.497Z,10.82
2022-12-07T01:55:23.424Z,9.82
2022-12-07T01:57:53.113Z,10.23
2022-12-07T02:00:20.237Z,10.23
2022-12-07T02:02:56.630Z,9.57
2022-12-07T02:05:25.384Z,11.07
2022-12-07T02:07:56.041Z,10.82
2022-12-07T02:10:25.864Z,9.00
2022-12-07T02:12:57.963Z,10.15
2022-12-07T02:15:35.347Z,9.10
2022-12-07T02:18:05.068Z,10.30
2022-12-07T02:20:38.704Z,11.25
2022-12-07T02:23:17.190Z,11.00
2022-12-07T02:25:58.846Z,10.02
2022-12-07T02:28:36.267Z,9.88
2022-12-07T02:31:13.196Z,10.15
2022-12-07T02:33:49.359Z,9.75
2022-12-07T02:36:26.575Z,9.43
2022-12-07T02:39:07.952Z,9.98
2022-12-07T02:41:44.054Z,9.02
2022-12-07T02:44:17.686Z,8.98
2022-12-07T02:46:52.126Z,9.60
2022-12-07T02:49:19.594Z,9.53
2022-12-07T02:51:47.410Z,9.43
2022-12-07T02:54:16.958Z,8.98
2022-12-07T02:57:21.029Z,9.13
2022-12-07T03:00:16.990Z,9.30
2022-12-07T03:03:02.159Z,9.37
2022-12-07T03:06:06.516Z,9.48
2022-12-07T03:08:52.182Z,9.18
2022-12-07T03:11:31.087Z,9.05
2022-12-07T03:14:16.416Z,8.93
2022-12-07T03:17:14.373Z,9.50
2022-12-07T03:19:43.438Z,9.40
2022-12-07T03:22:12.881Z,9.65
2022-12-07T03:24:57.934Z,9.50
2022-12-07T03:27:28.211Z,10.32
2022-12-07T03:30:01.872Z,9.87
2022-12-07T03:32:38.214Z,8.52
2022-12-07T03:35:18.814Z,8.98
2022-12-07T03:38:04.452Z,9.48
2022-12-07T03:40:38.157Z,9.38
2022-12-07T03:43:05.860Z,9.93
2022-12-07T03:45:59.728Z,9.65
2022-12-07T03:48:40.214Z,9.45
2022-12-07T03:51:29.968Z,8.90
2022-12-07T03:54:22.428Z,8.98
2022-12-07T03:56:50.106Z,7.97
2022-12-07T03:59:18.123Z,8.65
2022-12-07T04:01:46.099Z,9.52
2022-12-07T04:04:12.653Z,8.63
2022-12-07T04:06:39.121Z,9.13
2022-12-07T04:09:05.647Z,9.17
2022-12-07T04:11:32.132Z,10.00
2022-12-07T04:14:16.942Z,9.80
2022-12-07T04:16:44.801Z,9.00
2022-12-07T04:19:12.077Z,9.20
2022-12-07T04:21:38.562Z,11.10
2022-12-07T04:24:05.612Z,10.68
2022-12-07T04:26:32.146Z,8.88
2022-12-07T04:29:00.505Z,9.50
2022-12-07T04:31:30.070Z,8.95
2022-12-07T04:33:56.556Z,9.50
2022-12-07T04:36:23.214Z,8.60
2022-12-07T04:38:49.739Z,10.18
2022-12-07T04:41:16.208Z,9.93
2022-12-07T04:43:42.700Z,9.57
2022-12-07T04:46:09.176Z,9.30
2022-12-07T04:48:35.688Z,9.35
2022-12-07T04:51:04.458Z,9.02
2022-12-07T04:53:30.989Z,8.45
2022-12-07T04:55:57.463Z,8.25
2022-12-07T04:58:23.941Z,9.20
2022-12-07T05:00:50.410Z,8.93
2022-12-07T05:03:16.878Z,9.63
2022-12-07T05:05:43.319Z,8.68
2022-12-07T05:08:10.054Z,8.35
2022-12-07T05:10:36.609Z,9.13
2022-12-07T05:13:03.105Z,8.18
2022-12-07T05:15:29.527Z,7.25
2022-12-07T05:17:56.192Z,8.40
2022-12-07T05:20:22.636Z,7.40
2022-12-07T05:22:49.070Z,7.13
2022-12-07T05:25:15.603Z,8.25
2022-12-07T05:27:41.996Z,7.50
2022-12-07T05:30:08.977Z,7.75
2022-12-07T05:32:35.376Z,7.32
2022-12-07T05:35:01.877Z,9.07
2022-12-07T05:37:28.319Z,7.53
2022-12-07T05:39:54.860Z,7.28
2022-12-07T05:42:21.464Z,7.75
2022-12-07T05:44:48.016Z,7.13
2022-12-07T05:47:16.065Z,6.70
2022-12-07T05:49:42.757Z,7.68
2022-12-07T05:52:09.254Z,7.80
2022-12-07T05:54:35.755Z,11.25
2022-12-07T05:57:02.224Z,13.82
2022-12-07T05:59:28.822Z,8.63
2022-12-07T06:01:57.489Z,8.73
2022-12-07T06:04:25.795Z,8.32
2022-12-07T06:06:52.748Z,9.18
2022-12-07T06:09:21.866Z,8.27
2022-12-07T06:12:07.268Z,7.87
2022-12-07T06:14:33.741Z,13.82
2022-12-07T06:17:00.870Z,10.65
2022-12-07T06:19:27.728Z,17.48
2022-12-07T06:21:54.511Z,17.23
2022-12-07T06:24:21.106Z,9.70
2022-12-07T06:26:47.799Z,9.48
2022-12-07T06:29:14.872Z,7.60
2022-12-07T06:31:42.356Z,7.70
2022-12-07T06:34:14.965Z,7.65
2022-12-07T06:36:41.662Z,8.83
2022-12-07T06:39:10.036Z,7.80
2022-12-07T06:41:40.100Z,7.75
2022-12-07T06:44:07.775Z,7.72
2022-12-07T06:46:36.279Z,7.28
2022-12-07T06:49:04.340Z,7.63
2022-12-07T06:51:31.119Z,7.75
2022-12-07T06:53:57.816Z,6.57
2022-12-07T06:56:24.340Z,7.72
2022-12-07T06:58:50.813Z,7.22
2022-12-07T07:01:19.322Z,6.60
2022-12-07T07:03:47.344Z,7.22
2022-12-07T07:06:15.377Z,7.03
2022-12-07T07:08:41.985Z,7.93
2022-12-07T07:11:09.858Z,8.77
2022-12-07T07:13:37.173Z,8.13
2022-12-07T07:16:03.968Z,7.45
2022-12-07T07:18:30.510Z,8.00
2022-12-07T07:20:57.241Z,7.72
2022-12-07T07:23:23.744Z,7.90
2022-12-07T07:25:50.313Z,8.67
2022-12-07T07:28:17.719Z,7.80
2022-12-07T07:30:44.263Z,7.72
2022-12-07T07:33:11.285Z,7.55
2022-12-07T07:35:38.041Z,7.97
2022-12-07T07:38:04.565Z,6.63
2022-12-07T07:40:31.443Z,8.30
2022-12-07T07:42:58.410Z,8.50
2022-12-07T07:45:26.808Z,8.10
2022-12-07T07:47:53.696Z,8.60
2022-12-07T07:50:20.749Z,8.60
2022-12-07T07:52:47.321Z,9.90
2022-12-07T07:55:14.003Z,9.00
2022-12-07T07:57:41.090Z,8.15
2022-12-07T08:00:13.583Z,10.43
2022-12-07T08:02:40.445Z,9.63
2022-12-07T08:05:07.843Z,9.82
2022-12-07T08:07:34.400Z,9.18
2022-12-07T08:10:01.565Z,9.32
2022-12-07T08:12:28.262Z,9.52
2022-12-07T08:14:54.684Z,9.63
2022-12-07T08:17:21.135Z,8.98
2022-12-07T08:19:47.580Z,8.85
2022-12-07T08:22:14.030Z,8.98
2022-12-07T08:24:40.479Z,9.05
2022-12-07T08:27:06.998Z,9.63
2022-12-07T08:29:33.549Z,9.05
2022-12-07T08:32:04.190Z,9.45
2022-12-07T08:34:34.560Z,8.93
2022-12-07T08:37:01.705Z,9.32
2022-12-07T08:39:32.359Z,9.67
2022-12-07T08:41:59.284Z,8.95
2022-12-07T08:44:25.749Z,10.05
2022-12-07T08:47:02.024Z,10.00
2022-12-07T08:49:40.328Z,10.95
2022-12-07T08:52:07.310Z,9.87
2022-12-07T08:54:37.908Z,9.52
2022-12-07T08:57:05.408Z,6.88
2022-12-07T08:59:33.233Z,6.95
2022-12-07T09:01:59.779Z,7.72
2022-12-07T09:04:27.165Z,8.13
2022-12-07T09:06:55.381Z,7.13
2022-12-07T09:09:21.876Z,7.63
2022-12-07T09:11:48.367Z,8.85
2022-12-07T09:14:14.983Z,7.75
2022-12-07T09:16:41.477Z,6.53
2022-12-07T09:19:09.060Z,6.90
2022-12-07T09:21:35.501Z,7.75
2022-12-07T09:24:01.923Z,9.98
2022-12-07T09:26:28.464Z,8.50
2022-12-07T09:28:54.897Z,7.80
2022-12-07T09:31:24.409Z,7.55
2022-12-07T09:34:01.629Z,7.10
2022-12-07T09:36:29.308Z,8.15
2022-12-07T09:38:56.396Z,7.22
2022-12-07T09:41:24.989Z,6.97
2022-12-07T09:43:52.024Z,8.05
2022-12-07T09:46:20.473Z,7.55
2022-12-07T09:48:48.990Z,7.88
2022-12-07T09:51:23.130Z,7.45
2022-12-07T09:53:52.632Z,7.00
2022-12-07T09:56:20.290Z,6.43
2022-12-07T09:58:47.332Z,8.23
2022-12-07T10:01:19.810Z,7.82
2022-12-07T10:03:52.287Z,8.05
2022-12-07T10:06:19.277Z,5.80
2022-12-07T10:08:45.723Z,6.25
2022-12-07T10:11:12.713Z,7.15
2022-12-07T10:13:44.666Z,6.43
2022-12-07T10:16:29.460Z,7.20
2022-12-07T10:18:56.602Z,7.07
2022-12-07T10:21:32.240Z,6.50
2022-12-07T10:24:17.713Z,6.40
2022-12-07T10:26:47.178Z,7.10
2022-12-07T10:29:21.465Z,6.30
2022-12-07T10:31:59.879Z,6.53
2022-12-07T10:34:30.416Z,7.13
2022-12-07T10:37:19.335Z,7.53
2022-12-07T10:39:52.035Z,7.30
2022-12-07T10:42:23.605Z,5.85
2022-12-07T10:45:04.749Z,7.00
2022-12-07T10:47:31.606Z,5.93
2022-12-07T10:50:22.323Z,5.82
2022-12-07T10:53:10.074Z,5.60
2022-12-07T10:55:49.551Z,6.28
2022-12-07T10:58:43.392Z,6.20
2022-12-07T11:01:37.367Z,7.05
2022-12-07T11:04:26.376Z,7.05
2022-12-07T11:07:12.506Z,7.28
2022-12-07T11:10:11.969Z,6.20
2022-12-07T11:13:10.739Z,6.33
2022-12-07T11:15:58.105Z,6.30
2022-12-07T11:18:52.537Z,6.85
2022-12-07T11:21:31.285Z,6.00
2022-12-07T11:24:20.334Z,6.15
2022-12-07T11:26:58.902Z,5.93
2022-12-07T11:29:53.192Z,6.50
2022-12-07T11:32:46.709Z,6.18
2022-12-07T11:35:34.203Z,6.65
2022-12-07T11:38:08.264Z,6.43
2022-12-07T11:40:37.303Z,6.60
2022-12-07T11:43:13.139Z,6.20
2022-12-07T11:45:43.866Z,4.90
2022-12-07T11:48:19.919Z,6.68
2022-12-07T11:50:54.469Z,5.72
2022-12-07T11:53:28.763Z,5.23
2022-12-07T11:56:01.575Z,5.50
2022-12-07T11:58:34.155Z,6.00
2022-12-07T12:01:24.036Z,5.80
2022-12-07T12:03:53.973Z,6.30
2022-12-07T12:06:22.680Z,5.47
2022-12-07T12:15:18.385Z,6.00
2022-12-07T12:17:56.971Z,5.38
2022-12-07T12:20:26.407Z,6.07
2022-12-07T12:23:07.970Z,5.85
2022-12-07T12:25:43.621Z,6.10
2022-12-07T12:28:21.558Z,5.55
2022-12-07T12:31:06.164Z,5.70
2022-12-07T12:33:33.359Z,5.83
2022-12-07T12:36:43.957Z,5.43
2022-12-07T12:39:15.233Z,6.13
2022-12-07T12:41:47.351Z,4.80
2022-12-07T12:44:16.870Z,5.70
2022-12-07T12:46:56.849Z,5.47
2022-12-07T12:49:23.232Z,5.47
2022-12-07T12:51:53.370Z,5.70
2022-12-07T12:54:21.182Z,5.63
2022-12-07T12:56:52.692Z,5.65
2022-12-07T12:59:22.070Z,5.27
2022-12-07T13:01:50.510Z,6.43
2022-12-07T13:04:27.953Z,5.40
2022-12-07T13:06:54.673Z,5.65
2022-12-07T13:09:34.051Z,6.05
2022-12-07T13:12:04.824Z,5.50
2022-12-07T13:14:42.412Z,5.55
2022-12-07T13:17:13.480Z,5.43
2022-12-07T13:19:42.882Z,4.80
2022-12-07T13:22:28.150Z,4.93
2022-12-07T13:25:00.855Z,5.40
2022-12-07T13:27:28.315Z,5.45
2022-12-07T13:29:57.903Z,5.35
2022-12-07T13:32:29.726Z,5.20
2022-12-07T13:34:56.499Z,4.60
2022-12-07T13:37:28.125Z,5.10
2022-12-07T13:40:00.131Z,5.93
2022-12-07T13:42:28.025Z,5.68
2022-12-07T13:44:55.477Z,5.90
2022-12-07T13:47:26.622Z,5.53
2022-12-07T13:49:56.057Z,5.77
2022-12-07T13:52:25.985Z,5.30
2022-12-07T13:55:01.934Z,4.95
2022-12-07T13:57:31.558Z,4.72
2022-12-07T13:59:59.135Z,5.25
2022-12-07T14:02:39.929Z,5.30
2022-12-07T14:05:14.561Z,5.57
2022-12-07T14:08:10.740Z,4.53
2022-12-07T14:10:43.527Z,5.40
2022-12-07T14:13:35.116Z,5.05
2022-12-07T14:16:03.287Z,5.07
2022-12-07T14:18:40.408Z,4.88
2022-12-07T14:21:21.261Z,5.70
2022-12-07T14:24:16.139Z,5.30
2022-12-07T14:26:43.432Z,4.75
2022-12-07T14:29:29.105Z,5.10
2022-12-07T14:31:56.134Z,4.90
2022-12-07T14:34:23.603Z,4.63
2022-12-07T14:36:50.405Z,5.22
2022-12-07T14:39:16.857Z,5.65
2022-12-07T14:41:52.621Z,4.97
2022-12-07T14:44:23.980Z,5.40
2022-12-07T14:49:38.669Z,5.13
2022-12-07T14:54:54.039Z,5.43
2022-12-07T14:57:20.637Z,5.15
2022-12-07T14:59:47.076Z,4.25
2022-12-07T15:02:15.230Z,5.47
2022-12-07T15:04:41.942Z,5.40
2022-12-07T15:07:19.272Z,5.00
2022-12-07T15:09:45.782Z,4.72
2022-12-07T15:12:12.461Z,4.38
2022-12-07T15:14:39.206Z,4.28
2022-12-07T15:17:11.459Z,5.20
2022-12-07T15:19:41.380Z,5.40
2022-12-07T15:22:09.270Z,4.82
2022-12-07T15:24:35.751Z,5.15
2022-12-07T15:27:02.181Z,4.50
2022-12-07T15:29:28.938Z,6.00
2022-12-07T15:31:57.795Z,6.13
2022-12-07T15:34:34.861Z,6.18
2022-12-07T15:37:06.574Z,6.15
2022-12-07T15:39:33.225Z,6.13
2022-12-07T15:41:59.692Z,5.90
2022-12-07T15:44:44.538Z,6.07
2022-12-07T15:47:11.147Z,5.65
2022-12-07T15:49:37.776Z,5.78
2022-12-07T15:52:04.311Z,6.13
2022-12-07T15:54:31.146Z,4.85
2022-12-07T15:56:57.715Z,5.33
2022-12-07T15:59:24.753Z,5.28
2022-12-07T16:01:51.467Z,5.22
2022-12-07T16:04:17.949Z,6.18
2022-12-07T16:06:44.474Z,5.28
2022-12-07T16:09:10.927Z,5.73
2022-12-07T16:11:37.483Z,5.75
2022-12-07T16:14:03.936Z,6.05
2022-12-07T16:16:30.674Z,5.63
2022-12-07T16:18:58.486Z,5.80
2022-12-07T16:21:25.797Z,6.00
2022-12-07T16:23:52.900Z,6.13
2022-12-07T16:26:21.722Z,6.07
2022-12-07T16:28:52.778Z,5.30
2022-12-07T16:31:22.055Z,5.68
2022-12-07T16:33:50.165Z,6.20
2022-12-07T16:36:34.104Z,6.15
2022-12-07T16:39:05.367Z,5.55
2022-12-07T16:41:32.089Z,5.70
2022-12-07T16:43:58.602Z,6.78
2022-12-07T16:46:25.148Z,6.40
2022-12-07T16:48:51.623Z,5.63
2022-12-07T16:51:18.036Z,6.47
2022-12-07T16:53:44.513Z,6.55
2022-12-07T16:56:16.036Z,6.20
2022-12-07T16:58:43.818Z,6.13
2022-12-07T17:01:11.363Z,6.15
2022-12-07T17:03:37.873Z,6.20
2022-12-07T17:06:04.539Z,6.15
2022-12-07T17:08:31.045Z,6.95
2022-12-07T17:10:57.592Z,6.90
2022-12-07T17:13:42.507Z,7.13
2022-12-07T17:16:09.085Z,6.82
2022-12-07T17:18:36.689Z,6.50
2022-12-07T17:21:09.666Z,6.47
2022-12-07T17:23:37.447Z,7.00
2022-12-07T17:26:07.188Z,7.50
2022-12-07T17:28:34.740Z,6.28
2022-12-07T17:31:01.614Z,7.28
2022-12-07T17:33:28.320Z,6.22
2022-12-07T17:35:54.796Z,6.50
2022-12-07T17:38:21.264Z,6.75
2022-12-07T17:40:47.687Z,6.70
2022-12-07T17:43:14.160Z,6.45
2022-12-07T17:45:40.670Z,6.88
2022-12-07T17:48:07.210Z,6.80
2022-12-07T17:50:52.219Z,6.72
2022-12-07T17:53:19.052Z,6.25
2022-12-07T17:56:26.480Z,5.97
2022-12-07T17:58:32.015Z,6.72
2022-12-07T18:00:58.537Z,7.10
2022-12-07T18:03:25.115Z,6.43
2022-12-07T18:05:51.612Z,7.22
2022-12-07T18:08:18.095Z,14.13
2022-12-07T18:10:44.606Z,10.30
2022-12-07T18:13:37.078Z,10.67
2022-12-07T18:16:28.141Z,7.38
2022-12-07T18:18:55.069Z,7.18
2022-12-07T18:21:25.463Z,6.90
2022-12-07T18:23:54.676Z,7.25
2022-12-07T18:26:23.386Z,6.80
2022-12-07T18:28:50.609Z,6.53
2022-12-07T18:31:17.573Z,7.22
2022-12-07T18:33:45.408Z,6.95
2022-12-07T18:36:12.645Z,8.32
2022-12-07T18:38:39.562Z,7.90
2022-12-07T18:41:14.475Z,7.15
2022-12-07T18:43:42.174Z,7.25
2022-12-07T18:46:19.794Z,7.07
2022-12-07T18:48:47.380Z,6.80
2022-12-07T18:51:15.246Z,7.43
2022-12-07T18:53:42.772Z,7.53
2022-12-07T18:56:13.654Z,7.30
2022-12-07T18:59:03.671Z,7.40
2022-12-07T19:01:31.697Z,8.13
2022-12-07T19:03:59.483Z,7.80
2022-12-07T19:06:26.751Z,8.43
2022-12-07T19:08:54.421Z,8.25
2022-12-07T19:11:46.084Z,8.35
2022-12-07T19:14:13.687Z,7.50
2022-12-07T19:16:42.205Z,8.60
2022-12-07T19:19:08.750Z,8.77
2022-12-07T19:21:35.241Z,8.45
2022-12-07T19:24:05.957Z,8.50
2022-12-07T19:26:32.907Z,8.32
2022-12-07T19:28:59.768Z,9.07
2022-12-07T19:31:26.306Z,8.63
2022-12-07T19:33:52.842Z,9.07
2022-12-07T19:36:19.369Z,8.55
2022-12-07T19:38:45.903Z,9.20
2022-12-07T19:41:32.906Z,9.20
2022-12-07T19:44:00.798Z,8.63
2022-12-07T19:46:28.073Z,8.93
2022-12-07T19:48:54.957Z,8.23
2022-12-07T19:51:21.702Z,9.32
2022-12-07T19:53:48.163Z,7.47
2022-12-07T19:56:19.647Z,9.55
2022-12-07T19:58:47.924Z,7.93
2022-12-07T20:01:15.469Z,10.20
2022-12-07T20:03:42.130Z,8.40
2022-12-07T20:06:16.634Z,9.30
2022-12-07T20:08:44.234Z,9.57
2022-12-07T20:11:31.171Z,8.13
2022-12-07T20:13:57.788Z,8.90
2022-12-07T20:16:24.582Z,8.65
2022-12-07T20:18:57.404Z,10.30
2022-12-07T20:21:24.657Z,8.30
2022-12-07T20:23:51.216Z,8.13
2022-12-07T20:26:17.956Z,9.93
2022-12-07T20:28:46.521Z,10.05
2022-12-07T20:31:17.180Z,9.63
2022-12-07T20:33:47.491Z,8.38
2022-12-07T20:36:17.168Z,9.27
2022-12-07T20:38:45.449Z,9.20
2022-12-07T20:41:33.111Z,9.68
2022-12-07T20:44:01.004Z,9.07
2022-12-07T20:46:28.608Z,9.32
2022-12-07T20:48:57.722Z,9.23
2022-12-07T20:51:24.455Z,9.10
2022-12-07T20:53:50.919Z,9.02
2022-12-07T20:56:23.827Z,8.87
2022-12-07T20:58:50.490Z,9.73
2022-12-07T21:01:17.542Z,7.75
2022-12-07T21:03:44.032Z,8.65
2022-12-07T21:06:15.580Z,8.57
2022-12-07T21:08:47.195Z,9.20
2022-12-07T21:11:14.931Z,7.85
2022-12-07T21:13:42.487Z,7.97
2022-12-07T21:16:11.390Z,8.60
2022-12-07T21:18:38.362Z,8.95
2022-12-07T21:21:06.520Z,9.43
2022-12-07T21:23:33.118Z,9.38
2022-12-07T21:25:59.635Z,8.23
2022-12-07T21:28:26.497Z,8.40
2022-12-07T21:31:14.729Z,7.75
2022-12-07T21:33:42.731Z,8.83
2022-12-07T21:36:12.440Z,9.27
2022-12-07T21:38:39.085Z,8.25
2022-12-07T21:41:17.392Z,9.38
2022-12-07T21:43:44.763Z,9.25
2022-12-07T21:46:12.315Z,9.53
2022-12-07T21:48:39.606Z,9.35
2022-12-07T21:51:11.609Z,9.95
2022-12-07T21:53:39.327Z,10.45
2022-12-07T21:56:16.461Z,9.32
2022-12-07T21:58:43.678Z,9.57
2022-12-07T22:01:22.080Z,9.13
2022-12-07T22:03:49.087Z,8.52
2022-12-07T22:06:17.620Z,10.60
2022-12-07T22:08:44.303Z,12.00
2022-12-07T22:11:12.887Z,11.23
2022-12-07T22:13:59.732Z,11.48
2022-12-07T22:16:26.315Z,10.68
2022-12-07T22:18:53.188Z,10.00
2022-12-07T22:21:19.715Z,10.98
2022-12-07T22:23:46.553Z,9.47
2022-12-07T22:26:18.606Z,9.93
2022-12-07T22:28:48.045Z,9.75
2022-12-07T22:31:20.012Z,9.82
2022-12-07T22:33:46.776Z,9.45
2022-12-07T22:36:13.452Z,8.20
2022-12-07T22:38:40.762Z,9.75
2022-12-07T22:41:31.627Z,9.68
2022-12-07T22:43:59.113Z,9.15
2022-12-07T22:46:26.650Z,9.82
2022-12-07T22:48:53.843Z,9.10
2022-12-07T22:51:28.747Z,10.20
2022-12-07T22:53:57.057Z,8.85
2022-12-07T22:56:23.518Z,9.98
2022-12-07T22:58:50.064Z,9.05
2022-12-07T23:01:18.383Z,9.00
2022-12-07T23:03:45.249Z,9.13
2022-12-07T23:06:18.063Z,9.45
2022-12-07T23:08:45.377Z,9.40
2022-12-07T23:11:37.958Z,9.07
2022-12-07T23:14:10.228Z,8.10
2022-12-07T23:16:36.793Z,9.45
2022-12-07T23:19:03.728Z,9.10
2022-12-07T23:21:30.848Z,8.90
2022-12-07T23:23:57.255Z,10.20
2022-12-07T23:26:23.715Z,9.17
2022-12-07T23:28:50.172Z,8.90
2022-12-07T23:31:18.918Z,7.75
2022-12-07T23:33:45.878Z,8.25
2022-12-07T23:36:21.869Z,8.63
2022-12-07T23:38:53.239Z,9.10
2022-12-07T23:41:22.334Z,8.18
2022-12-07T23:43:48.793Z,8.63
2022-12-07T23:46:18.623Z,8.02
2022-12-07T23:48:47.097Z,8.20
2022-12-07T23:51:14.585Z,8.90
2022-12-07T23:53:43.332Z,8.43
2022-12-07T23:56:18.666Z,8.30
2022-12-07T23:58:46.630Z,9.35
